Taquaritinga, Brazil
Current Conditions -  °F | °C
As of 6:00 PM on Tuesday 21 Oct 2014 (Local Time) from SBRP Reporting Station
Clear Clear  
Wind Chill: 88°   Ceiling: Unl
Heat Index: 88°   Visibility: 6mi
Dew Point: 57°   Wind: 16mph
Humidity: 35%   Direction: 160°SSE
Pressure: 29.91"   Gusts: NA
Location:  21.41°S, 48.5°W
Report Text: SBRP 212000Z 16014KT CAVOK 31/14 Q1013
Loading
Personal Weather Stations






























Interactive Weather Map
Tropical Storm Tracking
New forecast layout! Learn more

10-Day Weather Forecast

Advertisements
Track Severe Weather on mobile